Time;durP1;ratioP1;P1;durP2;ratioP2;P2;SDS_P1;SDS_P2;PMS_P1;PMS_P2;Temp;Humidity;BMP_temperature;BMP_pressure;BME280_temperature;BME280_humidity;BME280_pressure;Samples;Min_cycle;Max_cycle;Signal;HPM_P1;HPM_P2
2023/07/19 00:02:15;;;;;;;8.43;5.88;;;;;;;-143.21;52.49;71041.16;5114202;28;20231;-78
2023/07/19 00:04:43;;;;;;;15.00;6.22;;;;;;;-143.21;52.78;71049.09;5114902;28;20196;-78
2023/07/19 00:07:11;;;;;;;8.50;5.43;;;;;;;-143.21;53.12;71053.06;5114844;28;20557;-78
2023/07/19 00:09:38;;;;;;;8.48;5.72;;;;;;;-143.21;52.93;71047.13;5114867;28;20196;-78
2023/07/19 00:12:06;;;;;;;7.05;5.90;;;;;;;-143.21;53.49;71057.03;5114386;28;20705;-78
2023/07/19 00:14:33;;;;;;;8.27;5.72;;;;;;;-143.21;53.71;71059.00;5114514;28;20188;-78
2023/07/19 00:16:59;;;;;;;10.15;6.15;;;;;;;-143.21;53.37;71062.97;5114354;28;20196;-78
2023/07/19 00:19:26;;;;;;;8.63;5.50;;;;;;;-143.21;52.89;71068.94;5114528;28;20219;-78
2023/07/19 00:21:54;;;;;;;14.98;6.10;;;;;;;-143.21;53.39;71074.88;5114355;28;20216;-79
2023/07/19 00:24:21;;;;;;;7.70;5.72;;;;;;;-143.21;54.03;71072.88;5114387;28;20189;-78
2023/07/19 00:26:49;;;;;;;12.93;5.80;;;;;;;-143.21;54.22;71074.88;5123128;27;20206;-78
2023/07/19 00:29:16;;;;;;;10.07;6.10;;;;;;;-143.21;54.16;71086.75;5134477;27;20195;-78
2023/07/19 00:31:43;;;;;;;10.73;6.05;;;;;;;-143.21;53.94;71096.69;5135471;27;20198;-78
2023/07/19 00:34:10;;;;;;;9.10;5.80;;;;;;;-143.21;54.50;71098.66;5134919;27;20214;-77
2023/07/19 00:36:37;;;;;;;17.42;8.40;;;;;;;-143.21;54.54;71092.72;5124371;27;20306;-78
2023/07/19 00:39:05;;;;;;;20.80;9.82;;;;;;;-143.21;54.58;71098.66;5114724;28;20253;-78
2023/07/19 00:41:32;;;;;;;19.67;9.82;;;;;;;-143.21;54.90;71102.63;5113971;28;20224;-78
2023/07/19 00:43:59;;;;;;;27.05;9.68;;;;;;;-143.21;54.85;71104.59;5114333;28;20203;-78
2023/07/19 00:46:27;;;;;;;39.35;12.23;;;;;;;-143.21;54.89;71104.59;5114491;28;20670;-78
2023/07/19 00:48:54;;;;;;;34.67;10.02;;;;;;;-143.21;54.32;71106.59;5114350;28;20188;-78
2023/07/19 00:51:22;;;;;;;25.85;9.95;;;;;;;-143.21;54.65;71108.56;5113784;28;20231;-78
2023/07/19 00:53:49;;;;;;;15.48;6.95;;;;;;;-143.21;52.58;71114.53;5113948;27;20666;-78
2023/07/19 00:56:18;;;;;;;16.40;6.85;;;;;;;-143.21;53.04;71120.47;5118168;27;20547;-78
2023/07/19 00:58:45;;;;;;;13.10;5.78;;;;;;;-143.21;52.67;71124.44;5134366;27;20206;-78
2023/07/19 01:01:13;;;;;;;24.35;8.80;;;;;;;-143.21;53.84;71136.31;5122966;27;20224;-78
2023/07/19 01:03:40;;;;;;;28.23;10.18;;;;;;;-143.21;54.62;71130.38;5113867;28;20202;-78
2023/07/19 01:06:07;;;;;;;22.33;8.32;;;;;;;-143.21;54.33;71136.31;5113749;28;20213;-78
2023/07/19 01:08:34;;;;;;;22.38;9.80;;;;;;;-143.21;55.34;71138.31;5113575;28;20601;-78
2023/07/19 01:11:01;;;;;;;27.85;13.00;;;;;;;-143.21;55.40;71142.28;5113908;28;20198;-78
2023/07/19 01:13:29;;;;;;;23.08;10.40;;;;;;;-143.21;55.33;71144.25;5113610;28;20196;-78
2023/07/19 01:15:56;;;;;;;26.33;10.40;;;;;;;-143.21;55.64;71138.31;5113826;28;20211;-78
2023/07/19 01:18:23;;;;;;;20.83;10.07;;;;;;;-143.21;55.73;71150.22;5113658;28;20681;-78
2023/07/19 01:20:50;;;;;;;21.02;10.05;;;;;;;-143.21;56.35;71148.22;5113436;28;20204;-78
2023/07/19 01:23:18;;;;;;;19.40;10.38;;;;;;;-143.21;55.55;71150.22;5113256;28;20266;-78
2023/07/19 01:25:44;;;;;;;16.75;9.65;;;;;;;-143.21;54.98;71154.16;5113734;28;20192;-78
2023/07/19 01:28:11;;;;;;;15.15;9.45;;;;;;;-143.21;54.44;71166.06;5113757;28;20207;-78
2023/07/19 01:30:38;;;;;;;12.50;7.40;;;;;;;-143.21;54.40;71160.13;5113888;28;20199;-78
2023/07/19 01:33:05;;;;;;;9.98;6.60;;;;;;;-143.21;54.03;71150.22;5113451;28;20196;-77
2023/07/19 01:35:32;;;;;;;9.32;6.25;;;;;;;-143.21;53.94;71154.16;5112848;28;20203;-77
2023/07/19 01:37:58;;;;;;;16.30;6.35;;;;;;;-143.21;54.36;71162.09;5113076;28;20195;-77
2023/07/19 01:40:26;;;;;;;10.00;6.90;;;;;;;-143.21;55.33;71156.16;5112893;28;20188;-77
2023/07/19 01:42:54;;;;;;;15.35;6.95;;;;;;;-143.21;55.55;71164.09;5112648;28;20235;-77
2023/07/19 01:45:20;;;;;;;11.80;6.95;;;;;;;-143.21;55.90;71166.06;5113025;27;20269;-77
2023/07/19 01:47:47;;;;;;;12.48;7.03;;;;;;;-143.21;55.50;71172.00;5112116;28;20203;-77
2023/07/19 01:50:14;;;;;;;10.65;6.90;;;;;;;-143.21;56.00;71172.00;5112010;28;20666;-77
2023/07/19 01:52:41;;;;;;;15.63;6.90;;;;;;;-143.21;55.60;71179.94;5112890;28;20188;-76
2023/07/19 01:55:08;;;;;;;10.23;6.68;;;;;;;-143.21;56.48;71179.94;5112947;28;20204;-77
2023/07/19 01:57:36;;;;;;;13.38;7.07;;;;;;;-143.21;56.70;71185.88;5118731;27;20588;-77
2023/07/19 02:00:03;;;;;;;9.77;7.10;;;;;;;-143.21;56.82;71187.88;5112469;28;20188;-77
2023/07/19 02:02:30;;;;;;;8.85;6.60;;;;;;;-143.21;56.80;71191.84;5112116;28;20216;-77
2023/07/19 02:04:57;;;;;;;8.20;6.47;;;;;;;-143.21;56.62;71193.81;5112306;28;20207;-77
2023/07/19 02:07:24;;;;;;;11.35;6.57;;;;;;;-143.21;57.19;71191.84;5112056;28;20188;-77
2023/07/19 02:09:51;;;;;;;11.35;7.05;;;;;;;-143.21;57.03;71185.88;5112349;28;20659;-77
2023/07/19 02:12:18;;;;;;;14.02;7.18;;;;;;;-143.21;57.16;71177.97;5111957;28;20192;-77
2023/07/19 02:14:46;;;;;;;10.52;6.75;;;;;;;-143.21;56.71;71172.00;5110400;28;20203;-77
2023/07/19 02:17:13;;;;;;;12.63;6.63;;;;;;;-143.21;57.17;71172.00;5107293;28;20196;-77
2023/07/19 02:19:40;;;;;;;10.60;7.07;;;;;;;-143.21;57.13;71177.97;5101846;28;20298;-77
2023/07/19 02:22:06;;;;;;;9.32;6.20;;;;;;;-143.21;57.40;71179.94;5109465;28;20215;-77
2023/07/19 02:24:33;;;;;;;8.05;6.22;;;;;;;-143.21;57.21;71177.97;5109730;28;20196;-78
2023/07/19 02:27:00;;;;;;;7.85;5.95;;;;;;;-143.21;56.06;71177.97;5109181;28;20661;-76
2023/07/19 02:29:27;;;;;;;7.75;6.47;;;;;;;-143.21;56.87;71183.91;5109240;28;20738;-78
2023/07/19 02:31:56;;;;;;;15.68;6.32;;;;;;;-143.21;56.98;71185.88;5109228;28;20192;-78
2023/07/19 02:34:23;;;;;;;10.98;6.15;;;;;;;-143.21;57.51;71181.94;5107735;28;20210;-78
2023/07/19 02:36:50;;;;;;;14.95;8.13;;;;;;;-143.21;57.93;71189.84;5109601;28;20195;-78
2023/07/19 02:39:17;;;;;;;13.38;7.10;;;;;;;-143.21;58.03;71189.84;5109093;28;20204;-78
2023/07/19 02:41:44;;;;;;;13.23;7.82;;;;;;;-143.21;58.06;71185.88;5108804;28;20249;-78
2023/07/19 02:44:11;;;;;;;19.42;6.90;;;;;;;-143.21;57.69;71189.84;5109128;28;20585;-78
2023/07/19 02:46:38;;;;;;;11.00;6.30;;;;;;;-143.21;57.27;71191.84;5108965;28;20550;-78
2023/07/19 02:49:06;;;;;;;9.38;6.30;;;;;;;-143.21;57.73;71201.75;5109053;28;20535;-78
2023/07/19 02:51:33;;;;;;;12.27;7.68;;;;;;;-143.21;57.59;71193.81;5108091;28;20255;-78
2023/07/19 02:53:59;;;;;;;11.13;6.95;;;;;;;-143.21;57.87;71183.91;5109246;28;20200;-78
2023/07/19 02:56:26;;;;;;;13.43;6.30;;;;;;;-143.21;58.04;71189.84;5103032;28;20197;-78
2023/07/19 02:58:53;;;;;;;13.55;7.25;;;;;;;-143.21;58.11;71193.81;5088654;28;20193;-78
2023/07/19 03:01:20;;;;;;;12.38;6.80;;;;;;;-143.21;57.94;71197.78;5099935;28;20215;-77
2023/07/19 03:03:47;;;;;;;11.55;7.50;;;;;;;-143.21;57.92;71193.81;5108979;28;20206;-77
2023/07/19 03:06:15;;;;;;;15.68;7.43;;;;;;;-143.21;58.07;71199.78;5109099;28;20196;-77
2023/07/19 03:08:43;;;;;;;14.40;7.45;;;;;;;-143.21;58.26;71205.72;5108554;28;20566;-78
2023/07/19 03:11:10;;;;;;;13.88;7.43;;;;;;;-143.21;58.49;71213.66;5108771;28;20277;-77
2023/07/19 03:13:37;;;;;;;17.52;7.40;;;;;;;-143.21;58.56;71205.72;5108839;28;20231;-79
2023/07/19 03:16:05;;;;;;;11.63;7.18;;;;;;;-143.21;58.76;71215.63;5109097;28;20188;-77
2023/07/19 03:18:32;;;;;;;9.50;6.57;;;;;;;-143.21;58.76;71225.53;5108719;28;20677;-77
2023/07/19 03:20:59;;;;;;;14.32;6.85;;;;;;;-143.21;58.50;71231.50;5108665;28;20209;-77
2023/07/19 03:23:30;;;;;;;9.48;6.68;;;;;;;-143.21;58.17;71237.44;5108752;28;20220;-77
2023/07/19 03:25:58;;;;;;;12.73;6.30;;;;;;;-143.21;57.84;71243.38;5109895;27;20577;-78
2023/07/19 03:28:25;;;;;;;11.27;6.82;;;;;;;-143.21;57.80;71251.31;5119877;28;20246;-78
2023/07/19 03:30:54;;;;;;;8.63;6.43;;;;;;;-143.21;58.41;71261.22;5108352;28;20200;-78
2023/07/19 03:33:22;;;;;;;14.15;8.13;;;;;;;-143.21;58.65;71283.03;5108483;28;20689;-78
2023/07/19 03:35:49;;;;;;;16.15;8.65;;;;;;;-143.21;59.20;71294.94;5106961;28;20223;-78
2023/07/19 03:38:16;;;;;;;10.82;6.32;;;;;;;-143.21;58.97;71287.00;5108824;28;20959;-78
2023/07/19 03:40:46;;;;;;;10.32;6.80;;;;;;;-143.21;59.51;71294.94;5106485;28;20218;-78
2023/07/19 03:43:13;;;;;;;12.07;6.80;;;;;;;-143.21;59.76;71300.88;5108361;28;20228;-78
2023/07/19 03:45:40;;;;;;;10.20;6.85;;;;;;;-143.21;59.99;71316.75;5108555;28;20289;-78
2023/07/19 03:48:07;;;;;;;11.07;6.60;;;;;;;-143.21;60.39;71306.81;5108980;28;20554;-79
2023/07/19 03:50:34;;;;;;;13.63;6.70;;;;;;;-143.21;60.74;71306.81;5107896;28;20908;-78
2023/07/19 03:53:01;;;;;;;12.25;7.32;;;;;;;-143.21;60.46;71312.78;5108171;28;20195;-79
2023/07/19 03:55:28;;;;;;;15.60;7.40;;;;;;;-143.21;60.38;71318.72;5108311;28;20753;-78
2023/07/19 03:57:56;;;;;;;12.55;7.68;;;;;;;-143.21;60.40;71326.66;5127032;28;20199;-76
2023/07/19 04:00:23;;;;;;;11.68;7.45;;;;;;;-143.21;60.60;71324.66;5108385;28;20659;-77
2023/07/19 04:02:50;;;;;;;14.70;7.28;;;;;;;-143.21;60.51;71314.75;5107904;28;20216;-78
2023/07/19 04:05:17;;;;;;;10.65;7.20;;;;;;;-143.21;60.26;71310.78;5106664;28;20200;-77
2023/07/19 04:07:43;;;;;;;14.10;7.00;;;;;;;-143.21;60.85;71308.81;5107967;28;20239;-78
2023/07/19 04:10:11;;;;;;;11.60;7.03;;;;;;;-143.21;61.39;71310.78;5108456;28;20200;-77
2023/07/19 04:12:38;;;;;;;14.25;7.95;;;;;;;-143.21;61.34;71300.88;5111285;28;20199;-78
2023/07/19 04:15:07;;;;;;;12.52;7.53;;;;;;;-143.21;61.02;71288.97;5111660;28;20207;-77
2023/07/19 04:17:34;;;;;;;13.52;7.78;;;;;;;-143.21;60.94;71290.97;5111744;28;20203;-77
2023/07/19 04:20:00;;;;;;;13.07;7.55;;;;;;;-143.21;60.89;71285.03;5111942;28;20196;-77
2023/07/19 04:22:27;;;;;;;13.95;7.95;;;;;;;-143.21;60.78;71287.00;5111578;27;20231;-77
2023/07/19 04:24:55;;;;;;;13.43;7.82;;;;;;;-143.21;60.88;71277.09;5111851;28;20678;-77
2023/07/19 04:27:22;;;;;;;15.77;8.45;;;;;;;-143.21;60.97;71281.06;5125096;27;20211;-78
2023/07/19 04:29:49;;;;;;;12.00;7.90;;;;;;;-143.21;61.56;71265.19;5132206;27;20223;-77
2023/07/19 04:32:17;;;;;;;18.40;8.52;;;;;;;-143.21;61.31;71257.25;5115122;27;20200;-77
2023/07/19 04:34:44;;;;;;;13.38;8.20;;;;;;;-143.21;60.64;71247.34;5109874;28;20194;-77
2023/07/19 04:37:11;;;;;;;11.82;8.52;;;;;;;-143.21;59.98;71227.53;5111783;28;20196;-79
2023/07/19 04:39:38;;;;;;;16.67;8.15;;;;;;;-143.21;60.21;71217.59;5111463;28;20194;-79
2023/07/19 04:42:05;;;;;;;11.55;7.85;;;;;;;-143.21;60.05;71205.72;5111405;28;20326;-78
2023/07/19 04:44:32;;;;;;;14.95;8.18;;;;;;;-143.21;59.79;71189.84;5111276;28;20713;-78
2023/07/19 04:46:59;;;;;;;9.70;7.70;;;;;;;-143.21;59.60;71189.84;5111279;28;20204;-78
2023/07/19 04:49:27;;;;;;;9.93;7.32;;;;;;;-143.21;60.02;71199.78;5111384;28;20662;-78
2023/07/19 04:51:54;;;;;;;11.57;7.85;;;;;;;-143.21;60.21;71209.69;5110894;28;20296;-78
2023/07/19 04:54:21;;;;;;;13.77;8.15;;;;;;;-143.21;59.88;71207.69;5111195;28;20211;-78
2023/07/19 04:56:47;;;;;;;18.67;8.90;;;;;;;-143.21;60.23;71211.66;5110289;27;20663;-78
2023/07/19 04:59:14;;;;;;;16.15;9.00;;;;;;;-143.21;59.92;71217.59;5110960;28;20581;-82
2023/07/19 05:01:43;;;;;;;19.42;8.48;;;;;;;-143.21;60.09;71209.69;5110949;28;20676;-79
2023/07/19 05:04:09;;;;;;;16.05;8.45;;;;;;;-143.21;60.14;71215.63;5111494;28;20230;-77
2023/07/19 05:06:38;;;;;;;16.88;9.38;;;;;;;-143.21;60.07;71205.72;5110747;28;20203;-79
2023/07/19 05:09:05;;;;;;;15.75;8.57;;;;;;;-143.21;60.14;71205.72;5110642;28;20207;-79
2023/07/19 05:11:32;;;;;;;15.82;8.70;;;;;;;-143.21;60.05;71203.72;5110564;28;20210;-79
2023/07/19 05:13:59;;;;;;;16.65;8.77;;;;;;;-143.21;59.87;71207.69;5110695;28;20266;-78
2023/07/19 05:16:26;;;;;;;17.92;8.80;;;;;;;-143.21;59.91;71205.72;5110567;28;20211;-79
2023/07/19 05:18:53;;;;;;;14.27;9.13;;;;;;;-143.21;59.54;71189.84;5110650;28;20630;-78
2023/07/19 05:21:20;;;;;;;14.00;8.77;;;;;;;-143.21;59.29;71175.97;5110516;28;20195;-77
2023/07/19 05:23:49;;;;;;;15.52;8.50;;;;;;;-143.21;59.35;71170.03;5109759;28;20222;-77
2023/07/19 05:26:16;;;;;;;15.20;9.25;;;;;;;-143.21;60.02;71177.97;5114860;27;20215;-76
2023/07/19 05:28:43;;;;;;;17.60;9.57;;;;;;;-143.21;59.82;71177.97;5120923;27;20215;-77
2023/07/19 05:31:10;;;;;;;19.70;9.15;;;;;;;-143.21;60.23;71183.91;5110059;28;20204;-78
2023/07/19 05:33:37;;;;;;;19.00;9.60;;;;;;;-143.21;60.09;71175.97;5110331;28;20200;-77
2023/07/19 05:36:04;;;;;;;26.73;9.65;;;;;;;-143.21;60.31;71175.97;5108982;28;20196;-77
2023/07/19 05:38:32;;;;;;;17.15;9.63;;;;;;;-143.21;60.24;71177.97;5110220;28;20638;-78
2023/07/19 05:41:02;;;;;;;17.10;9.73;;;;;;;-143.21;60.51;71170.03;5110364;28;20229;-78
2023/07/19 05:43:28;;;;;;;18.95;9.82;;;;;;;-143.21;59.82;71154.16;5110224;28;20284;-78
2023/07/19 05:46:02;;;;;;;18.38;9.52;;;;;;;-143.21;59.99;71142.28;5110581;28;20208;-78
2023/07/19 05:48:29;;;;;;;19.45;9.82;;;;;;;-143.21;59.49;71130.38;5110430;28;20181;-77
2023/07/19 05:50:56;;;;;;;22.73;9.38;;;;;;;-143.21;58.86;71118.50;5110220;28;20231;-77
2023/07/19 05:53:23;;;;;;;18.98;9.68;;;;;;;-143.21;58.20;71104.59;5110599;28;20188;-77
2023/07/19 05:55:51;;;;;;;18.83;8.82;;;;;;;-143.21;57.58;71090.72;5110547;27;20226;-77
2023/07/19 05:58:19;;;;;;;14.00;8.63;;;;;;;-143.21;56.33;71068.94;5116912;27;20200;-78
2023/07/19 06:00:46;;;;;;;13.63;9.27;;;;;;;-143.21;55.43;71051.09;5110219;28;20581;-78
2023/07/19 06:03:14;;;;;;;15.43;9.63;;;;;;;-143.21;56.41;71055.06;5109286;28;20224;-78
2023/07/19 06:05:41;;;;;;;15.40;8.38;;;;;;;-143.21;56.45;71059.00;5110585;28;20200;-78
2023/07/19 06:08:08;;;;;;;15.32;8.43;;;;;;;-143.21;55.66;71057.03;5110477;28;20195;-78
2023/07/19 06:10:35;;;;;;;14.63;8.60;;;;;;;-143.21;55.49;71051.09;5109669;28;20203;-78
2023/07/19 06:13:03;;;;;;;13.65;7.97;;;;;;;-143.21;55.02;71041.16;5109924;28;20192;-78
2023/07/19 06:15:31;;;;;;;11.65;7.50;;;;;;;-143.21;53.35;71007.47;5109638;28;20207;-79
2023/07/19 06:17:59;;;;;;;10.82;7.50;;;;;;;-143.21;52.62;70999.53;5109568;28;20903;-77
2023/07/19 06:20:25;;;;;;;15.15;7.75;;;;;;;-143.21;52.29;70977.72;5109432;28;20608;-78
2023/07/19 06:22:52;;;;;;;12.75;8.32;;;;;;;-143.21;52.60;70973.78;5109736;28;20216;-77
2023/07/19 06:25:19;;;;;;;14.25;8.57;;;;;;;-143.21;53.68;70971.78;5109610;28;20207;-77
2023/07/19 06:27:46;;;;;;;16.95;9.07;;;;;;;-143.21;53.79;70971.78;5126081;27;20207;-78
2023/07/19 06:30:13;;;;;;;13.70;9.05;;;;;;;-143.21;53.56;70969.81;5116599;27;20203;-78
2023/07/19 06:32:41;;;;;;;12.32;9.07;;;;;;;-143.21;53.20;70961.88;5109384;28;20206;-77
2023/07/19 06:35:09;;;;;;;13.55;8.75;;;;;;;-143.21;53.75;70948.00;5107978;28;20253;-76
2023/07/19 06:37:36;;;;;;;14.95;8.80;;;;;;;-143.21;53.53;70940.06;5109624;28;20288;-77
2023/07/19 06:40:03;;;;;;;14.70;8.93;;;;;;;-143.21;53.05;70930.16;5108999;28;20200;-77
2023/07/19 06:42:32;;;;;;;13.90;8.73;;;;;;;-143.21;52.86;70926.19;5109206;28;20199;-79
2023/07/19 06:44:59;;;;;;;12.88;8.68;;;;;;;-143.21;52.54;70922.22;5109448;28;20245;-77
2023/07/19 06:47:28;;;;;;;16.95;9.05;;;;;;;-143.21;52.37;70924.22;5109028;28;20208;-77
2023/07/19 06:49:57;;;;;;;17.33;8.18;;;;;;;-143.21;52.93;70922.22;5109006;28;20228;-76
2023/07/19 06:52:24;;;;;;;12.20;8.32;;;;;;;-143.21;52.78;70912.31;5109241;28;20196;-76
2023/07/19 06:54:51;;;;;;;14.25;8.50;;;;;;;-143.21;52.97;70896.47;5109685;28;20300;-76
2023/07/19 06:57:17;;;;;;;14.43;7.97;;;;;;;-143.21;52.26;70878.63;5121855;27;20203;-78
2023/07/19 06:59:44;;;;;;;17.35;8.32;;;;;;;-143.21;52.31;70868.72;5129997;27;20268;-78
2023/07/19 07:02:11;;;;;;;17.50;7.57;;;;;;;-143.21;52.44;70864.75;5129566;27;20199;-78
2023/07/19 07:04:38;;;;;;;14.50;7.60;;;;;;;-143.21;52.30;70866.72;5129387;27;20219;-78
2023/07/19 07:07:06;;;;;;;11.63;7.60;;;;;;;-143.21;52.32;70868.72;5118373;27;20204;-78
2023/07/19 07:09:33;;;;;;;16.17;7.95;;;;;;;-143.21;51.28;70860.78;5109547;28;20188;-78
2023/07/19 07:12:00;;;;;;;8.80;6.95;;;;;;;-143.21;51.47;70856.81;5108732;28;20199;-77
2023/07/19 07:14:27;;;;;;;11.20;7.28;;;;;;;-143.21;51.17;70860.78;5108627;28;20199;-77
2023/07/19 07:16:53;;;;;;;15.95;6.75;;;;;;;-143.21;51.62;70850.88;5109037;28;20196;-77
2023/07/19 07:19:20;;;;;;;10.15;7.43;;;;;;;-143.21;50.63;70840.97;5108699;28;20212;-77
2023/07/19 07:21:47;;;;;;;11.68;6.97;;;;;;;-143.21;50.68;70823.13;5108662;28;20214;-78
2023/07/19 07:24:15;;;;;;;10.73;7.60;;;;;;;-143.21;50.04;70823.13;5108704;28;20231;-78
2023/07/19 07:26:42;;;;;;;16.52;7.07;;;;;;;-143.21;50.07;70811.22;5116205;27;20318;-77
2023/07/19 07:29:09;;;;;;;15.00;6.63;;;;;;;-143.21;48.63;70805.28;5129307;27;20199;-78
2023/07/19 07:31:36;;;;;;;12.05;7.47;;;;;;;-143.21;49.65;70783.47;5112491;27;20203;-79
2023/07/19 07:34:03;;;;;;;14.35;7.75;;;;;;;-143.21;49.18;70759.69;5106642;28;20203;-80
2023/07/19 07:36:29;;;;;;;15.38;7.85;;;;;;;-143.21;48.57;70741.84;5108903;28;20264;-77
2023/07/19 07:38:56;;;;;;;12.73;7.20;;;;;;;-143.21;48.21;70731.94;5108403;28;20546;-78
2023/07/19 07:41:24;;;;;;;13.77;7.13;;;;;;;-143.21;48.16;70727.97;5108827;28;20635;-78
2023/07/19 07:43:51;;;;;;;10.07;7.32;;;;;;;-143.21;48.18;70724.00;5108518;28;20224;-81
2023/07/19 07:46:18;;;;;;;20.40;8.60;;;;;;;-143.21;48.12;70722.03;5109783;28;20670;-79
2023/07/19 07:48:45;;;;;;;14.00;7.75;;;;;;;-143.21;48.48;70729.94;5112550;28;20196;-79
2023/07/19 07:51:12;;;;;;;12.95;7.97;;;;;;;-143.21;48.21;70729.94;5112287;28;20254;-78
2023/07/19 07:53:39;;;;;;;11.45;7.95;;;;;;;-143.21;48.40;70714.09;5112493;28;20607;-78
2023/07/19 07:56:06;;;;;;;15.20;7.80;;;;;;;-143.21;48.39;70692.28;5113154;28;20200;-79
2023/07/19 07:58:34;;;;;;;14.27;7.60;;;;;;;-143.21;47.66;70670.47;5103532;27;20206;-78
2023/07/19 08:01:01;;;;;;;15.60;7.40;;;;;;;-143.21;47.64;70660.56;5113810;27;20207;-78
2023/07/19 08:03:28;;;;;;;20.05;8.02;;;;;;;-143.21;47.19;70658.59;5112193;28;20702;-77
2023/07/19 08:05:55;;;;;;;11.77;7.25;;;;;;;-143.21;46.37;70650.66;5113871;28;20200;-78
2023/07/19 08:08:22;;;;;;;15.40;6.80;;;;;;;-143.21;45.97;70642.72;5112482;28;20188;-79
2023/07/19 08:10:54;;;;;;;14.18;7.18;;;;;;;-143.21;45.88;70648.69;5112180;28;20196;-78
2023/07/19 08:13:23;;;;;;;15.05;7.38;;;;;;;-143.21;46.03;70640.75;5111678;28;20196;-78
2023/07/19 08:16:06;;;;;;;11.80;7.05;;;;;;;-143.21;46.44;70620.94;5112485;28;20192;-78
2023/07/19 08:18:33;;;;;;;10.57;7.72;;;;;;;-143.21;46.59;70603.09;5112654;28;20211;-78
2023/07/19 08:21:03;;;;;;;11.70;7.28;;;;;;;-143.21;46.15;70589.22;5111778;28;20667;-78
2023/07/19 08:23:41;;;;;;;11.55;7.18;;;;;;;-143.21;46.16;70583.25;5111407;28;20343;-78
2023/07/19 08:26:15;;;;;;;13.10;7.35;;;;;;;-143.21;46.06;70563.44;5114526;27;20245;-77
2023/07/19 08:28:43;;;;;;;14.35;7.10;;;;;;;-143.21;45.58;70541.63;5131990;27;20187;-77
2023/07/19 08:31:11;;;;;;;10.88;7.68;;;;;;;-143.21;45.03;70513.88;5132011;27;20661;-78
2023/07/19 08:33:38;;;;;;;11.73;7.28;;;;;;;-143.21;45.05;70496.06;5131683;27;20310;-77
2023/07/19 08:36:05;;;;;;;11.75;7.15;;;;;;;-143.21;44.15;70460.38;5130287;27;20218;-77
2023/07/19 08:38:32;;;;;;;12.27;6.90;;;;;;;-143.21;43.59;70440.56;5117469;27;20207;-77
2023/07/19 08:41:02;;;;;;;10.25;6.45;;;;;;;-143.21;43.48;70426.69;5109163;28;20204;-77
2023/07/19 08:43:29;;;;;;;10.77;6.70;;;;;;;-143.21;43.75;70406.84;5124778;27;20224;-77
2023/07/19 08:45:57;;;;;;;10.55;6.90;;;;;;;-143.21;43.49;70398.94;5134685;27;20192;-78
2023/07/19 08:48:26;;;;;;;9.23;6.50;;;;;;;-143.21;42.93;70396.94;5134199;27;20191;-78
2023/07/19 08:50:59;;;;;;;13.52;6.50;;;;;;;-143.21;42.35;70400.91;5133732;27;20227;-79
2023/07/19 08:53:26;;;;;;;9.45;6.40;;;;;;;-143.21;42.94;70406.84;5133892;27;20184;-77
2023/07/19 08:55:54;;;;;;;14.15;6.63;;;;;;;-143.21;43.09;70381.09;5123984;27;20207;-77
2023/07/19 08:58:21;;;;;;;10.48;6.40;;;;;;;-143.21;43.62;70353.34;5132995;27;20199;-78
2023/07/19 09:00:50;;;;;;;12.32;8.02;;;;;;;-143.21;42.87;70331.53;5134055;27;20191;-79
2023/07/19 09:03:18;;;;;;;12.40;7.80;;;;;;;-143.21;42.57;70311.72;5133725;27;20195;-78
2023/07/19 09:05:47;;;;;;;12.73;7.70;;;;;;;-143.21;42.46;70293.88;5124383;27;20223;-79
2023/07/19 09:08:14;;;;;;;11.90;7.35;;;;;;;-143.21;42.41;70283.97;5113053;28;20207;-79
2023/07/19 09:10:44;;;;;;;14.63;7.40;;;;;;;-143.21;41.63;70268.13;5113468;28;20620;-78
2023/07/19 09:13:11;;;;;;;15.98;7.68;;;;;;;-143.21;41.62;70270.09;5108795;28;20212;-79
2023/07/19 09:15:37;;;;;;;13.13;7.47;;;;;;;-143.21;42.11;70260.19;5105021;28;20196;-79
2023/07/19 09:18:06;;;;;;;10.10;6.82;;;;;;;-143.21;41.33;70236.41;5092577;28;20193;-79
2023/07/19 09:20:36;;;;;;;10.40;6.78;;;;;;;-143.21;40.33;70230.47;5107558;28;20257;-79
2023/07/19 09:23:07;;;;;;;8.88;7.07;;;;;;;-143.21;40.78;70224.50;5113081;28;20690;-78
2023/07/19 09:25:34;;;;;;;11.55;7.20;;;;;;;-143.21;41.23;70210.63;5113024;28;20223;-78
2023/07/19 09:28:08;;;;;;;10.40;7.00;;;;;;;-143.21;40.98;70198.75;5132399;27;20227;-78
2023/07/19 09:30:34;;;;;;;8.68;6.47;;;;;;;-143.21;41.06;70182.91;5133183;27;20253;-78
2023/07/19 09:33:02;;;;;;;11.15;6.72;;;;;;;-143.21;41.41;70167.03;5112644;28;20264;-78
2023/07/19 09:35:30;;;;;;;10.57;6.45;;;;;;;-143.21;40.99;70147.22;5103785;28;20562;-78
2023/07/19 09:37:58;;;;;;;8.95;6.50;;;;;;;-143.21;40.83;70129.38;5092623;28;20185;-79
2023/07/19 09:40:27;;;;;;;9.75;6.47;;;;;;;-143.21;40.07;70113.53;5092577;28;20292;-78
2023/07/19 09:42:55;;;;;;;12.43;6.75;;;;;;;-143.21;39.44;70117.50;5105520;28;20634;-77
2023/07/19 09:45:24;;;;;;;15.70;7.05;;;;;;;-143.21;38.13;70119.47;5112363;28;20311;-78
2023/07/19 09:47:52;;;;;;;10.20;6.65;;;;;;;-143.21;37.16;70099.66;5112649;28;20200;-78
2023/07/19 09:50:21;;;;;;;8.93;6.40;;;;;;;-143.21;36.53;70081.81;5112291;28;20721;-78
2023/07/19 09:52:50;;;;;;;10.10;6.22;;;;;;;-143.21;36.95;70065.97;5112306;28;20189;-78
2023/07/19 09:55:20;;;;;;;21.20;6.68;;;;;;;-143.21;36.32;70058.03;5112465;28;20198;-78
2023/07/19 09:57:51;;;;;;;12.48;6.13;;;;;;;-143.21;35.27;70044.16;5129955;27;20195;-79
2023/07/19 10:00:18;;;;;;;11.88;6.35;;;;;;;-143.21;35.45;70028.31;5132992;27;20191;-78
2023/07/19 10:02:45;;;;;;;16.02;6.43;;;;;;;-143.21;35.92;70008.50;5132741;27;20210;-79
2023/07/19 10:05:12;;;;;;;12.43;6.30;;;;;;;-143.21;34.57;69986.69;5132736;27;20215;-78
2023/07/19 10:07:40;;;;;;;11.07;6.80;;;;;;;-143.21;33.48;69964.91;5133181;27;20187;-79
2023/07/19 10:10:07;;;;;;;12.43;7.35;;;;;;;-143.21;32.77;69953.00;5132624;27;20708;-77
2023/07/19 10:12:39;;;;;;;16.10;6.80;;;;;;;-143.21;32.55;69972.81;5132913;27;20252;-79
2023/07/19 10:15:09;;;;;;;14.57;7.28;;;;;;;-143.21;33.40;69964.91;5100617;27;20639;-79
2023/07/19 10:17:40;;;;;;;12.75;7.85;;;;;;;-143.21;32.17;69945.06;5092015;28;20216;-79
2023/07/19 10:20:09;;;;;;;10.27;6.88;;;;;;;-143.21;32.01;69927.25;5094880;28;20658;-78
2023/07/19 10:22:52;;;;;;;16.70;6.40;;;;;;;-143.21;32.15;69905.44;5110080;28;20217;-78
2023/07/19 10:25:23;;;;;;;10.88;6.30;;;;;;;-143.21;32.18;69885.63;5112060;28;20268;-78
2023/07/19 10:28:00;;;;;;;10.55;6.68;;;;;;;-143.21;32.35;69881.66;5120943;27;20231;-76
2023/07/19 10:30:50;;;;;;;11.40;6.68;;;;;;;-143.21;32.14;69857.88;5112216;28;20253;-76
2023/07/19 10:33:19;;;;;;;16.55;6.65;;;;;;;-143.21;31.88;69844.00;5100462;27;20230;-77
2023/07/19 10:35:48;;;;;;;14.27;6.82;;;;;;;-143.21;31.85;69838.06;5111541;28;20573;-77
2023/07/19 10:38:15;;;;;;;14.27;6.20;;;;;;;-143.21;31.72;69826.16;5111414;28;20721;-77
2023/07/19 10:40:46;;;;;;;18.05;8.65;;;;;;;-143.21;31.80;69800.41;5100298;28;20736;-77
2023/07/19 10:43:12;;;;;;;11.88;6.20;;;;;;;-143.21;31.22;69790.50;5112524;28;20292;-77
2023/07/19 10:45:40;;;;;;;14.82;6.60;;;;;;;-143.21;31.30;69772.66;5111513;28;20212;-78
2023/07/19 10:48:09;;;;;;;14.93;6.80;;;;;;;-143.21;31.24;69788.53;5111198;28;20678;-77
2023/07/19 10:50:36;;;;;;;11.85;6.88;;;;;;;-143.21;31.35;69796.44;5110955;28;20239;-78
2023/07/19 10:53:03;;;;;;;19.45;7.43;;;;;;;-143.21;31.69;69780.59;5111074;28;20563;-77
2023/07/19 10:55:29;;;;;;;10.68;6.35;;;;;;;-143.21;30.73;69772.66;5111467;28;20207;-77
2023/07/19 10:57:57;;;;;;;12.23;6.15;;;;;;;-143.21;30.13;69778.59;5118440;27;20207;-77
2023/07/19 11:00:24;;;;;;;10.50;6.03;;;;;;;-143.21;29.60;69782.56;5111115;28;20204;-79
2023/07/19 11:02:53;;;;;;;7.82;5.65;;;;;;;-143.21;29.07;69774.66;5111035;28;20204;-77
2023/07/19 11:05:22;;;;;;;9.23;5.53;;;;;;;-143.21;29.32;69762.75;5110851;28;20281;-77
2023/07/19 11:07:50;;;;;;;8.07;5.32;;;;;;;-143.21;29.22;69744.91;5103830;28;20731;-77
2023/07/19 11:10:18;;;;;;;10.82;6.47;;;;;;;-143.21;29.27;69727.09;5111337;28;20196;-77
2023/07/19 11:12:46;;;;;;;12.27;7.10;;;;;;;-143.21;29.25;69687.44;5106763;27;20204;-77